createdAt,value
2022-08-28T00:01:29.386Z,16.90
2022-08-28T00:04:38.067Z,15.10
2022-08-28T00:07:47.656Z,16.40
2022-08-28T00:10:54.841Z,17.20
2022-08-28T00:14:01.041Z,16.80
2022-08-28T00:17:07.468Z,17.50
2022-08-28T00:20:15.934Z,16.50
2022-08-28T00:23:22.490Z,15.20
2022-08-28T00:26:46.604Z,16.70
2022-08-28T00:29:52.817Z,18.20
2022-08-28T00:33:00.794Z,17.60
2022-08-28T00:36:07.550Z,17.20
2022-08-28T00:39:13.691Z,17.90
2022-08-28T00:42:22.839Z,18.50
2022-08-28T00:45:29.949Z,16.20
2022-08-28T00:48:36.151Z,16.80
2022-08-28T00:52:00.718Z,18.20
2022-08-28T00:55:11.528Z,15.00
2022-08-28T00:58:17.782Z,19.30
2022-08-28T01:01:24.128Z,17.20
2022-08-28T01:04:32.459Z,18.00
2022-08-28T01:07:40.216Z,16.70
2022-08-28T01:10:51.683Z,17.50
2022-08-28T01:14:01.756Z,19.60
2022-08-28T01:17:10.618Z,16.10
2022-08-28T01:20:20.070Z,15.20
2022-08-28T01:23:40.811Z,15.40
2022-08-28T01:26:48.172Z,17.30
2022-08-28T01:29:55.427Z,15.60
2022-08-28T01:33:04.418Z,13.60
2022-08-28T01:36:12.407Z,17.30
2022-08-28T01:39:21.386Z,14.60
2022-08-28T01:42:27.607Z,17.20
2022-08-28T01:45:33.875Z,14.70
2022-08-28T01:48:42.589Z,17.90
2022-08-28T01:51:48.789Z,17.60
2022-08-28T01:54:57.570Z,14.70
2022-08-28T01:58:07.036Z,12.80
2022-08-28T02:01:15.351Z,14.50
2022-08-28T02:04:25.652Z,15.00
2022-08-28T02:07:39.043Z,13.70
2022-08-28T02:10:45.598Z,13.10
2022-08-28T02:13:52.561Z,14.00
2022-08-28T02:17:00.578Z,15.50
2022-08-28T02:20:08.284Z,13.80
2022-08-28T02:23:14.290Z,15.80
2022-08-28T02:26:21.005Z,14.20
2022-08-28T02:29:27.307Z,14.00
2022-08-28T02:32:33.799Z,14.70
2022-08-28T02:35:42.971Z,13.80
2022-08-28T02:38:54.125Z,14.10
2022-08-28T02:42:03.692Z,13.60
2022-08-28T02:45:11.926Z,13.10
2022-08-28T02:48:18.326Z,12.30
2022-08-28T02:51:25.159Z,13.90
2022-08-28T02:54:31.325Z,15.20
2022-08-28T02:57:37.572Z,13.80
2022-08-28T03:00:44.441Z,14.10
2022-08-28T03:03:50.644Z,16.70
2022-08-28T03:06:56.685Z,14.30
2022-08-28T03:10:03.023Z,13.50
2022-08-28T03:13:09.206Z,14.70
2022-08-28T03:16:15.417Z,13.60
2022-08-28T03:19:21.639Z,12.50
2022-08-28T03:22:41.644Z,13.60
2022-08-28T03:25:47.874Z,12.00
2022-08-28T03:28:59.782Z,16.00
2022-08-28T03:32:06.710Z,13.60
2022-08-28T03:35:13.554Z,15.10
2022-08-28T03:38:21.549Z,12.80
2022-08-28T03:41:31.266Z,10.90
2022-08-28T03:44:38.671Z,13.80
2022-08-28T03:47:45.221Z,15.20
2022-08-28T03:50:53.314Z,18.50
2022-08-28T03:53:59.560Z,14.30
2022-08-28T03:57:05.935Z,13.00
2022-08-28T04:00:14.859Z,12.80
2022-08-28T04:03:21.637Z,11.30
2022-08-28T04:06:29.263Z,12.00
2022-08-28T04:09:35.483Z,12.80
2022-08-28T04:12:41.663Z,12.40
2022-08-28T04:15:48.473Z,14.10
2022-08-28T04:18:54.626Z,12.60
2022-08-28T04:22:01.354Z,12.00
2022-08-28T04:25:09.297Z,11.30
2022-08-28T04:28:15.539Z,12.10
2022-08-28T04:31:31.018Z,11.50
2022-08-28T04:34:39.889Z,12.20
2022-08-28T04:37:46.001Z,13.50
2022-08-28T04:40:52.004Z,13.60
2022-08-28T04:47:03.284Z,13.40
2022-08-28T04:50:14.058Z,13.70
2022-08-28T04:53:21.493Z,13.70
2022-08-28T04:56:28.691Z,13.00
2022-08-28T04:59:34.925Z,13.20
2022-08-28T05:02:41.097Z,12.40
2022-08-28T05:05:49.259Z,14.40
2022-08-28T05:08:55.506Z,18.60
2022-08-28T05:12:06.249Z,14.20
2022-08-28T05:15:14.118Z,10.40
2022-08-28T05:18:23.993Z,12.60
2022-08-28T05:21:30.863Z,10.80
2022-08-28T05:24:38.190Z,14.20
2022-08-28T05:27:44.330Z,11.80
2022-08-28T05:30:50.527Z,13.50
2022-08-28T05:33:57.141Z,13.50
2022-08-28T05:37:03.491Z,10.60
2022-08-28T05:40:11.755Z,13.10
2022-08-28T05:43:19.257Z,11.70
2022-08-28T05:46:28.530Z,12.00
2022-08-28T05:49:34.973Z,15.90
2022-08-28T05:52:41.406Z,11.60
2022-08-28T05:55:51.795Z,13.80
2022-08-28T05:58:58.650Z,14.20
2022-08-28T06:02:06.698Z,13.70
2022-08-28T06:05:13.421Z,11.80
2022-08-28T06:08:19.533Z,9.40
2022-08-28T06:11:26.170Z,11.60
2022-08-28T06:14:33.962Z,13.20
2022-08-28T06:17:40.588Z,12.20
2022-08-28T06:20:47.897Z,11.10
2022-08-28T06:23:54.041Z,10.80
2022-08-28T06:27:00.957Z,10.40
2022-08-28T06:30:08.993Z,9.60
2022-08-28T06:33:16.943Z,11.90
2022-08-28T06:36:23.153Z,10.80
2022-08-28T06:39:29.329Z,11.80
2022-08-28T06:42:35.534Z,12.10
2022-08-28T06:45:45.318Z,10.20
2022-08-28T06:48:51.579Z,9.60
2022-08-28T06:51:57.823Z,10.60
2022-08-28T06:55:04.219Z,11.20
2022-08-28T06:58:12.800Z,9.40
2022-08-28T07:01:22.957Z,10.50
2022-08-28T07:04:29.213Z,9.10
2022-08-28T07:07:35.602Z,11.10
2022-08-28T07:10:41.816Z,9.20
2022-08-28T07:13:48.309Z,8.90
2022-08-28T07:16:54.461Z,12.60
2022-08-28T07:20:00.479Z,11.00
2022-08-28T07:23:07.799Z,9.50
2022-08-28T07:26:16.286Z,14.40
2022-08-28T07:29:22.987Z,10.40
2022-08-28T07:32:29.198Z,10.50
2022-08-28T07:35:35.374Z,11.80
2022-08-28T07:38:41.540Z,10.60
2022-08-28T07:41:49.205Z,11.20
2022-08-28T07:44:57.395Z,12.70
2022-08-28T07:48:05.185Z,12.00
2022-08-28T07:51:12.839Z,11.60
2022-08-28T07:54:20.315Z,11.90
2022-08-28T07:57:26.595Z,11.50
2022-08-28T08:00:32.830Z,10.60
2022-08-28T08:03:39.321Z,12.20
2022-08-28T08:06:46.941Z,10.10
2022-08-28T08:09:53.190Z,10.00
2022-08-28T08:12:59.328Z,9.90
2022-08-28T08:16:08.127Z,12.50
2022-08-28T08:19:15.569Z,11.80
2022-08-28T08:22:21.619Z,10.90
2022-08-28T08:25:28.009Z,11.00
2022-08-28T08:28:38.865Z,12.30
2022-08-28T08:31:45.286Z,13.10
2022-08-28T08:34:54.171Z,11.10
2022-08-28T08:38:02.885Z,11.10
2022-08-28T08:41:19.617Z,12.20
2022-08-28T08:44:33.970Z,11.40
2022-08-28T08:47:48.833Z,15.40
2022-08-28T08:50:56.650Z,11.00
2022-08-28T08:54:07.542Z,13.00
2022-08-28T08:57:16.143Z,13.60
2022-08-28T09:00:22.705Z,12.50
2022-08-28T09:03:34.257Z,9.90
2022-08-28T09:06:46.191Z,12.10
2022-08-28T09:09:54.051Z,10.90
2022-08-28T09:13:05.061Z,10.10
2022-08-28T09:16:19.235Z,10.70
2022-08-28T09:19:25.566Z,12.60
2022-08-28T09:22:31.782Z,10.60
2022-08-28T09:25:54.416Z,12.40
2022-08-28T09:29:07.506Z,11.90
2022-08-28T09:32:27.407Z,12.20
2022-08-28T09:35:36.137Z,11.90
2022-08-28T09:38:42.037Z,9.90
2022-08-28T09:42:14.962Z,12.60
2022-08-28T09:45:25.214Z,13.80
2022-08-28T09:48:37.677Z,11.30
2022-08-28T09:51:44.661Z,9.40
2022-08-28T09:54:52.821Z,10.60
2022-08-28T09:57:59.338Z,12.70
2022-08-28T10:01:12.973Z,10.30
2022-08-28T10:04:40.241Z,11.40
2022-08-28T10:07:54.954Z,11.50
2022-08-28T10:11:08.845Z,8.80
2022-08-28T10:14:29.155Z,14.40
2022-08-28T10:17:41.766Z,13.90
2022-08-28T10:21:08.042Z,11.10
2022-08-28T10:24:30.507Z,11.00
2022-08-28T10:27:47.851Z,10.90
2022-08-28T10:31:03.985Z,11.10
2022-08-28T10:34:28.607Z,10.70
2022-08-28T10:37:44.971Z,8.70
2022-08-28T10:40:57.025Z,11.70
2022-08-28T10:44:05.183Z,10.10
2022-08-28T10:47:13.416Z,11.30
2022-08-28T10:50:24.917Z,10.90
2022-08-28T10:53:37.289Z,10.90
2022-08-28T10:56:56.377Z,10.80
2022-08-28T11:00:05.667Z,12.60
2022-08-28T11:03:33.419Z,11.10
2022-08-28T11:06:44.796Z,12.10
2022-08-28T11:09:51.766Z,10.50
2022-08-28T11:12:58.559Z,11.70
2022-08-28T11:16:18.423Z,11.20
2022-08-28T11:19:52.280Z,11.80
2022-08-28T11:23:08.820Z,10.60
2022-08-28T11:26:24.511Z,10.10
2022-08-28T11:30:02.858Z,11.90
2022-08-28T11:33:26.774Z,12.20
2022-08-28T11:37:00.197Z,9.90
2022-08-28T11:40:20.308Z,10.00
2022-08-28T11:43:40.058Z,9.50
2022-08-28T11:46:47.986Z,8.60
2022-08-28T11:49:54.841Z,9.90
2022-08-28T11:53:27.411Z,12.30
2022-08-28T11:56:46.605Z,11.10
2022-08-28T12:00:21.669Z,10.70
2022-08-28T12:03:33.609Z,9.80
2022-08-28T12:06:56.444Z,10.60
2022-08-28T12:10:05.164Z,21.90
2022-08-28T12:13:32.214Z,12.10
2022-08-28T12:17:31.212Z,11.70
2022-08-28T12:21:05.310Z,10.10
2022-08-28T12:24:24.302Z,11.20
2022-08-28T12:27:31.950Z,10.10
2022-08-28T12:30:47.784Z,9.60
2022-08-28T12:34:02.335Z,9.60
2022-08-28T12:37:29.982Z,8.80
2022-08-28T12:40:50.559Z,11.00
2022-08-28T12:43:59.675Z,9.80
2022-08-28T12:47:06.661Z,12.50
2022-08-28T12:50:28.486Z,9.40
2022-08-28T12:53:43.878Z,12.00
2022-08-28T12:56:49.984Z,12.30
2022-08-28T13:00:08.026Z,11.80
2022-08-28T13:03:14.234Z,9.90
2022-08-28T13:06:28.985Z,11.60
2022-08-28T13:12:56.640Z,11.00
2022-08-28T13:16:04.992Z,11.40
2022-08-28T13:19:30.627Z,12.90
2022-08-28T13:22:40.590Z,12.00
2022-08-28T13:25:46.955Z,10.60
2022-08-28T13:28:53.581Z,10.30
2022-08-28T13:32:02.113Z,12.00
2022-08-28T13:35:16.930Z,11.20
2022-08-28T13:38:25.201Z,12.00
2022-08-28T13:41:31.603Z,11.80
2022-08-28T13:44:48.645Z,9.20
2022-08-28T13:47:55.227Z,11.20
2022-08-28T13:51:05.137Z,9.50
2022-08-28T13:54:19.918Z,9.90
2022-08-28T13:57:26.018Z,10.00
2022-08-28T14:00:35.946Z,9.90
2022-08-28T14:03:42.206Z,9.90
2022-08-28T14:06:48.262Z,8.40
2022-08-28T14:09:56.515Z,9.40
2022-08-28T14:13:02.951Z,7.90
2022-08-28T14:16:10.391Z,9.00
2022-08-28T14:19:16.561Z,9.90
2022-08-28T14:22:22.722Z,9.30
2022-08-28T14:25:28.851Z,9.00
2022-08-28T14:28:35.064Z,8.80
2022-08-28T14:31:42.031Z,8.80
2022-08-28T14:34:50.866Z,9.50
2022-08-28T14:37:57.071Z,8.00
2022-08-28T14:41:03.586Z,9.50
2022-08-28T14:44:10.378Z,8.40
2022-08-28T14:47:16.538Z,8.40
2022-08-28T14:50:22.636Z,9.90
2022-08-28T14:53:28.766Z,8.60
2022-08-28T14:56:36.058Z,9.50
2022-08-28T14:59:42.266Z,9.30
2022-08-28T15:02:48.426Z,10.10
2022-08-28T15:06:04.975Z,11.50
2022-08-28T15:09:11.706Z,10.20
2022-08-28T15:12:18.217Z,10.00
2022-08-28T15:15:24.406Z,8.10
2022-08-28T15:18:30.660Z,8.30
2022-08-28T15:21:38.919Z,9.80
2022-08-28T15:24:45.417Z,9.30
2022-08-28T15:27:51.706Z,8.30
2022-08-28T15:30:57.848Z,8.80
2022-08-28T15:34:13.127Z,10.70
2022-08-28T15:37:19.802Z,8.80
2022-08-28T15:40:44.832Z,8.60
2022-08-28T15:43:51.695Z,9.60
2022-08-28T15:46:59.915Z,11.00
2022-08-28T15:50:07.747Z,8.70
2022-08-28T15:53:18.150Z,8.30
2022-08-28T15:56:24.750Z,11.30
2022-08-28T15:59:38.105Z,11.20
2022-08-28T16:03:00.226Z,10.90
2022-08-28T16:06:11.675Z,10.60
2022-08-28T16:09:17.826Z,10.20
2022-08-28T16:12:25.642Z,11.50
2022-08-28T16:15:32.146Z,12.00
2022-08-28T16:18:38.374Z,10.90
2022-08-28T16:21:44.575Z,11.30
2022-08-28T16:24:51.137Z,13.20
2022-08-28T16:27:57.598Z,12.10
2022-08-28T16:31:08.304Z,11.50
2022-08-28T16:34:30.778Z,12.10
2022-08-28T16:37:39.729Z,12.70
2022-08-28T16:40:47.076Z,12.80
2022-08-28T16:43:54.139Z,13.40
2022-08-28T16:47:00.258Z,12.50
2022-08-28T16:50:09.825Z,11.50
2022-08-28T16:53:16.099Z,11.30
2022-08-28T16:56:26.824Z,11.40
2022-08-28T16:59:33.058Z,10.50
2022-08-28T17:02:43.980Z,11.90
2022-08-28T17:05:53.589Z,11.00
2022-08-28T17:09:00.841Z,13.00
2022-08-28T17:12:07.355Z,12.90
2022-08-28T17:15:14.994Z,11.30
2022-08-28T17:18:21.166Z,10.50
2022-08-28T17:21:45.122Z,11.70
2022-08-28T17:24:53.783Z,10.50
2022-08-28T17:28:00.238Z,10.50
2022-08-28T17:31:07.753Z,12.20
2022-08-28T17:34:14.461Z,11.80
2022-08-28T17:37:40.878Z,14.00
2022-08-28T17:40:47.084Z,15.10
2022-08-28T17:43:53.201Z,13.30
2022-08-28T17:46:59.476Z,14.10
2022-08-28T17:50:07.196Z,12.80
2022-08-28T17:53:13.247Z,13.40
2022-08-28T17:56:19.689Z,13.90
2022-08-28T17:59:39.402Z,11.50
2022-08-28T18:02:46.914Z,12.40
2022-08-28T18:05:52.950Z,11.50
2022-08-28T18:08:59.086Z,10.80
2022-08-28T18:12:06.469Z,10.30
2022-08-28T18:15:18.727Z,10.10
2022-08-28T18:18:31.535Z,11.70
2022-08-28T18:21:41.955Z,12.90
2022-08-28T18:24:52.623Z,11.40
2022-08-28T18:27:58.946Z,11.80
2022-08-28T18:31:06.290Z,14.00
2022-08-28T18:34:13.079Z,13.20
2022-08-28T18:37:19.299Z,10.20
2022-08-28T18:40:26.355Z,11.10
2022-08-28T18:43:32.697Z,11.70
2022-08-28T18:46:38.821Z,10.10
2022-08-28T18:49:45.455Z,10.30
2022-08-28T18:52:52.322Z,11.90
2022-08-28T18:55:58.583Z,9.70
2022-08-28T18:59:08.830Z,10.20
2022-08-28T19:02:16.840Z,10.90
2022-08-28T19:05:23.450Z,10.30
2022-08-28T19:08:29.909Z,11.00
2022-08-28T19:11:36.385Z,11.50
2022-08-28T19:14:42.660Z,10.40
2022-08-28T19:17:49.238Z,9.90
2022-08-28T19:21:03.539Z,10.60
2022-08-28T19:24:10.397Z,10.10
2022-08-28T19:27:17.052Z,10.20
2022-08-28T19:30:23.753Z,11.20
2022-08-28T19:33:30.542Z,11.50
2022-08-28T19:36:37.647Z,10.20
2022-08-28T19:39:47.638Z,11.50
2022-08-28T19:43:02.750Z,10.10
2022-08-28T19:46:19.969Z,11.10
2022-08-28T19:49:26.778Z,10.70
2022-08-28T19:52:34.436Z,12.30
2022-08-28T19:55:40.669Z,13.50
2022-08-28T19:58:46.856Z,11.20
2022-08-28T20:01:53.143Z,10.80
2022-08-28T20:04:59.614Z,12.60
2022-08-28T20:08:06.547Z,10.30
2022-08-28T20:11:16.715Z,11.00
2022-08-28T20:14:23.878Z,11.10
2022-08-28T20:17:30.427Z,9.70
2022-08-28T20:20:37.575Z,11.80
2022-08-28T20:23:43.709Z,10.50
2022-08-28T20:26:50.098Z,12.70
2022-08-28T20:29:56.318Z,11.50
2022-08-28T20:33:03.302Z,11.90
2022-08-28T20:36:16.100Z,10.90
2022-08-28T20:39:28.395Z,11.80
2022-08-28T20:42:35.290Z,12.80
2022-08-28T20:45:41.763Z,11.70
2022-08-28T20:48:47.966Z,12.90
2022-08-28T20:51:54.561Z,11.10
2022-08-28T20:55:00.687Z,11.40
2022-08-28T20:58:06.861Z,12.60
2022-08-28T21:01:15.830Z,10.80
2022-08-28T21:04:22.166Z,11.10
2022-08-28T21:07:28.754Z,12.40
2022-08-28T21:10:35.383Z,13.00
2022-08-28T21:13:41.446Z,10.50
2022-08-28T21:16:47.660Z,10.20
2022-08-28T21:19:54.065Z,12.50
2022-08-28T21:23:00.709Z,11.90
2022-08-28T21:26:09.974Z,11.70
2022-08-28T21:29:16.737Z,12.30
2022-08-28T21:32:22.864Z,12.60
2022-08-28T21:46:31.626Z,11.50
2022-08-28T21:49:38.397Z,11.20
2022-08-28T21:52:44.858Z,14.80
2022-08-28T21:55:53.079Z,12.80
2022-08-28T21:58:59.841Z,12.60
2022-08-28T22:02:06.783Z,12.50
2022-08-28T22:05:13.266Z,13.00
2022-08-28T22:08:20.622Z,12.70
2022-08-28T22:11:28.180Z,11.10
2022-08-28T22:14:34.303Z,10.90
2022-08-28T22:17:40.678Z,11.20
2022-08-28T22:21:05.413Z,13.40
2022-08-28T22:24:12.298Z,12.00
2022-08-28T22:27:18.414Z,11.50
2022-08-28T22:30:24.755Z,13.00
2022-08-28T22:33:31.809Z,10.00
2022-08-28T22:36:38.714Z,12.60
2022-08-28T22:39:45.636Z,12.60
2022-08-28T22:42:51.995Z,12.50
2022-08-28T22:45:58.349Z,12.40
2022-08-28T22:49:04.606Z,12.50
2022-08-28T22:52:12.305Z,14.00
2022-08-28T22:55:20.239Z,14.90
2022-08-28T22:58:26.500Z,16.50
2022-08-28T23:01:32.692Z,16.50
2022-08-28T23:04:38.931Z,19.00
2022-08-28T23:07:45.413Z,17.80
2022-08-28T23:10:59.722Z,18.60
2022-08-28T23:14:06.867Z,18.60
2022-08-28T23:17:12.929Z,18.30
2022-08-28T23:20:22.038Z,17.20
2022-08-28T23:23:29.427Z,16.30
2022-08-28T23:26:35.597Z,17.30
2022-08-28T23:29:41.826Z,19.10
2022-08-28T23:32:48.261Z,18.80
2022-08-28T23:35:54.613Z,17.60
2022-08-28T23:39:00.898Z,18.30
2022-08-28T23:42:07.776Z,17.30
2022-08-28T23:45:16.101Z,17.60
2022-08-28T23:48:22.858Z,16.40
2022-08-28T23:51:28.982Z,16.30
2022-08-28T23:54:35.081Z,16.70
2022-08-28T23:57:41.474Z,14.40
